sensor_id;sensor_type;location;lat;lon;timestamp;P1;durP1;ratioP1;P2;durP2;ratioP2
27893;SDS011;15240;50.812;4.792;2022-12-24T00:00:54;30.70;;;5.53;;
27893;SDS011;15240;50.812;4.792;2022-12-24T00:03:21;33.07;;;5.20;;
27893;SDS011;15240;50.812;4.792;2022-12-24T00:05:47;36.70;;;6.47;;
27893;SDS011;15240;50.812;4.792;2022-12-24T00:08:13;38.03;;;5.80;;
27893;SDS011;15240;50.812;4.792;2022-12-24T00:10:39;35.07;;;6.10;;
27893;SDS011;15240;50.812;4.792;2022-12-24T00:13:05;41.83;;;6.73;;
27893;SDS011;15240;50.812;4.792;2022-12-24T00:15:31;38.20;;;5.30;;
27893;SDS011;15240;50.812;4.792;2022-12-24T00:17:57;37.70;;;5.93;;
27893;SDS011;15240;50.812;4.792;2022-12-24T00:20:23;39.43;;;6.20;;
27893;SDS011;15240;50.812;4.792;2022-12-24T00:22:49;32.67;;;5.47;;
27893;SDS011;15240;50.812;4.792;2022-12-24T00:25:15;34.07;;;5.90;;
27893;SDS011;15240;50.812;4.792;2022-12-24T00:27:42;43.03;;;6.30;;
27893;SDS011;15240;50.812;4.792;2022-12-24T00:30:08;34.70;;;6.33;;
27893;SDS011;15240;50.812;4.792;2022-12-24T00:32:34;34.80;;;5.77;;
27893;SDS011;15240;50.812;4.792;2022-12-24T00:35:01;37.03;;;5.47;;
27893;SDS011;15240;50.812;4.792;2022-12-24T00:37:27;27.73;;;6.10;;
27893;SDS011;15240;50.812;4.792;2022-12-24T00:39:54;35.60;;;5.57;;
27893;SDS011;15240;50.812;4.792;2022-12-24T00:42:20;37.80;;;6.40;;
27893;SDS011;15240;50.812;4.792;2022-12-24T00:44:46;35.80;;;5.50;;
27893;SDS011;15240;50.812;4.792;2022-12-24T00:47:13;34.43;;;6.17;;
27893;SDS011;15240;50.812;4.792;2022-12-24T00:49:39;36.30;;;5.73;;
27893;SDS011;15240;50.812;4.792;2022-12-24T00:52:06;35.20;;;6.57;;
27893;SDS011;15240;50.812;4.792;2022-12-24T00:54:32;29.77;;;5.97;;
27893;SDS011;15240;50.812;4.792;2022-12-24T00:56:58;39.00;;;6.47;;
27893;SDS011;15240;50.812;4.792;2022-12-24T00:59:25;32.77;;;5.77;;
27893;SDS011;15240;50.812;4.792;2022-12-24T01:01:51;49.77;;;6.80;;
27893;SDS011;15240;50.812;4.792;2022-12-24T01:04:17;41.90;;;6.07;;
27893;SDS011;15240;50.812;4.792;2022-12-24T01:07:09;41.53;;;6.17;;
27893;SDS011;15240;50.812;4.792;2022-12-24T01:09:35;42.10;;;6.50;;
27893;SDS011;15240;50.812;4.792;2022-12-24T01:12:01;45.27;;;6.83;;
27893;SDS011;15240;50.812;4.792;2022-12-24T01:14:27;46.67;;;6.87;;
27893;SDS011;15240;50.812;4.792;2022-12-24T01:16:53;46.00;;;6.60;;
27893;SDS011;15240;50.812;4.792;2022-12-24T01:19:20;44.63;;;7.40;;
27893;SDS011;15240;50.812;4.792;2022-12-24T01:21:46;42.53;;;6.90;;
27893;SDS011;15240;50.812;4.792;2022-12-24T01:24:13;43.67;;;6.87;;
27893;SDS011;15240;50.812;4.792;2022-12-24T01:26:39;43.23;;;6.80;;
27893;SDS011;15240;50.812;4.792;2022-12-24T01:29:05;44.63;;;6.73;;
27893;SDS011;15240;50.812;4.792;2022-12-24T01:31:32;41.97;;;5.87;;
27893;SDS011;15240;50.812;4.792;2022-12-24T01:33:58;42.70;;;6.40;;
27893;SDS011;15240;50.812;4.792;2022-12-24T01:36:24;37.83;;;6.23;;
27893;SDS011;15240;50.812;4.792;2022-12-24T01:38:50;50.30;;;6.60;;
27893;SDS011;15240;50.812;4.792;2022-12-24T01:41:16;40.10;;;6.10;;
27893;SDS011;15240;50.812;4.792;2022-12-24T01:44:21;39.03;;;6.07;;
27893;SDS011;15240;50.812;4.792;2022-12-24T01:46:51;35.10;;;5.80;;
27893;SDS011;15240;50.812;4.792;2022-12-24T01:49:18;48.20;;;5.90;;
27893;SDS011;15240;50.812;4.792;2022-12-24T01:51:49;37.77;;;5.73;;
27893;SDS011;15240;50.812;4.792;2022-12-24T01:54:24;34.47;;;5.40;;
27893;SDS011;15240;50.812;4.792;2022-12-24T01:56:55;28.43;;;3.80;;
27893;SDS011;15240;50.812;4.792;2022-12-24T01:59:24;16.37;;;2.50;;
27893;SDS011;15240;50.812;4.792;2022-12-24T02:01:50;15.30;;;3.33;;
27893;SDS011;15240;50.812;4.792;2022-12-24T02:04:20;30.73;;;5.00;;
27893;SDS011;15240;50.812;4.792;2022-12-24T02:06:49;32.73;;;5.10;;
27893;SDS011;15240;50.812;4.792;2022-12-24T02:09:15;25.70;;;4.67;;
27893;SDS011;15240;50.812;4.792;2022-12-24T02:11:41;26.17;;;4.87;;
27893;SDS011;15240;50.812;4.792;2022-12-24T02:14:08;34.80;;;5.50;;
27893;SDS011;15240;50.812;4.792;2022-12-24T02:21:42;42.83;;;7.57;;
27893;SDS011;15240;50.812;4.792;2022-12-24T02:27:27;39.00;;;7.00;;
27893;SDS011;15240;50.812;4.792;2022-12-24T02:29:59;46.70;;;7.67;;
27893;SDS011;15240;50.812;4.792;2022-12-24T02:35:04;44.57;;;6.80;;
27893;SDS011;15240;50.812;4.792;2022-12-24T02:37:33;37.57;;;6.93;;
27893;SDS011;15240;50.812;4.792;2022-12-24T02:40:09;50.10;;;7.57;;
27893;SDS011;15240;50.812;4.792;2022-12-24T02:42:38;47.63;;;7.63;;
27893;SDS011;15240;50.812;4.792;2022-12-24T02:45:19;34.90;;;7.37;;
27893;SDS011;15240;50.812;4.792;2022-12-24T02:47:47;43.53;;;7.27;;
27893;SDS011;15240;50.812;4.792;2022-12-24T02:50:14;41.33;;;7.13;;
27893;SDS011;15240;50.812;4.792;2022-12-24T02:52:42;34.17;;;6.63;;
27893;SDS011;15240;50.812;4.792;2022-12-24T03:00:20;27.87;;;6.50;;
27893;SDS011;15240;50.812;4.792;2022-12-24T03:02:49;34.70;;;6.13;;
27893;SDS011;15240;50.812;4.792;2022-12-24T03:07:56;32.47;;;6.33;;
27893;SDS011;15240;50.812;4.792;2022-12-24T03:13:12;32.73;;;6.40;;
27893;SDS011;15240;50.812;4.792;2022-12-24T03:15:39;33.33;;;6.50;;
27893;SDS011;15240;50.812;4.792;2022-12-24T03:18:07;35.90;;;6.93;;
27893;SDS011;15240;50.812;4.792;2022-12-24T03:20:35;32.40;;;6.83;;
27893;SDS011;15240;50.812;4.792;2022-12-24T03:23:02;29.03;;;6.17;;
27893;SDS011;15240;50.812;4.792;2022-12-24T03:25:29;34.93;;;6.57;;
27893;SDS011;15240;50.812;4.792;2022-12-24T03:27:57;41.33;;;7.43;;
27893;SDS011;15240;50.812;4.792;2022-12-24T03:30:23;40.00;;;7.50;;
27893;SDS011;15240;50.812;4.792;2022-12-24T03:32:50;46.00;;;8.30;;
27893;SDS011;15240;50.812;4.792;2022-12-24T03:35:16;40.03;;;7.60;;
27893;SDS011;15240;50.812;4.792;2022-12-24T03:37:42;44.77;;;8.23;;
27893;SDS011;15240;50.812;4.792;2022-12-24T03:40:09;46.33;;;8.00;;
27893;SDS011;15240;50.812;4.792;2022-12-24T03:42:35;46.23;;;7.20;;
27893;SDS011;15240;50.812;4.792;2022-12-24T03:45:01;46.10;;;8.80;;
27893;SDS011;15240;50.812;4.792;2022-12-24T03:47:27;38.00;;;7.67;;
27893;SDS011;15240;50.812;4.792;2022-12-24T03:49:53;43.03;;;8.30;;
27893;SDS011;15240;50.812;4.792;2022-12-24T03:52:19;34.70;;;7.93;;
27893;SDS011;15240;50.812;4.792;2022-12-24T03:54:45;42.40;;;7.93;;
27893;SDS011;15240;50.812;4.792;2022-12-24T03:57:11;54.53;;;8.97;;
27893;SDS011;15240;50.812;4.792;2022-12-24T03:59:38;50.57;;;8.40;;
27893;SDS011;15240;50.812;4.792;2022-12-24T04:02:04;49.17;;;8.00;;
27893;SDS011;15240;50.812;4.792;2022-12-24T04:04:30;43.57;;;7.77;;
27893;SDS011;15240;50.812;4.792;2022-12-24T04:06:58;47.17;;;7.97;;
27893;SDS011;15240;50.812;4.792;2022-12-24T04:09:24;47.50;;;7.97;;
27893;SDS011;15240;50.812;4.792;2022-12-24T04:11:50;49.47;;;8.00;;
27893;SDS011;15240;50.812;4.792;2022-12-24T04:14:16;46.33;;;8.23;;
27893;SDS011;15240;50.812;4.792;2022-12-24T04:16:42;49.50;;;7.53;;
27893;SDS011;15240;50.812;4.792;2022-12-24T04:19:08;58.53;;;8.47;;
27893;SDS011;15240;50.812;4.792;2022-12-24T04:21:34;59.83;;;8.37;;
27893;SDS011;15240;50.812;4.792;2022-12-24T04:24:00;44.40;;;6.90;;
27893;SDS011;15240;50.812;4.792;2022-12-24T04:26:26;41.97;;;7.87;;
27893;SDS011;15240;50.812;4.792;2022-12-24T04:28:52;44.13;;;7.63;;
27893;SDS011;15240;50.812;4.792;2022-12-24T04:31:18;44.93;;;8.20;;
27893;SDS011;15240;50.812;4.792;2022-12-24T04:33:44;38.77;;;7.27;;
27893;SDS011;15240;50.812;4.792;2022-12-24T04:36:12;47.13;;;7.53;;
27893;SDS011;15240;50.812;4.792;2022-12-24T04:38:40;48.53;;;7.93;;
27893;SDS011;15240;50.812;4.792;2022-12-24T04:41:07;41.63;;;6.73;;
27893;SDS011;15240;50.812;4.792;2022-12-24T04:43:35;44.33;;;7.13;;
27893;SDS011;15240;50.812;4.792;2022-12-24T04:46:08;37.33;;;7.40;;
27893;SDS011;15240;50.812;4.792;2022-12-24T04:48:35;41.27;;;7.17;;
27893;SDS011;15240;50.812;4.792;2022-12-24T04:51:02;44.10;;;7.97;;
27893;SDS011;15240;50.812;4.792;2022-12-24T04:53:29;41.63;;;7.40;;
27893;SDS011;15240;50.812;4.792;2022-12-24T04:55:55;37.83;;;7.60;;
27893;SDS011;15240;50.812;4.792;2022-12-24T04:58:21;40.20;;;8.10;;
27893;SDS011;15240;50.812;4.792;2022-12-24T05:00:47;43.80;;;7.73;;
27893;SDS011;15240;50.812;4.792;2022-12-24T05:03:13;42.67;;;6.97;;
27893;SDS011;15240;50.812;4.792;2022-12-24T05:05:39;38.70;;;7.10;;
27893;SDS011;15240;50.812;4.792;2022-12-24T05:08:05;42.33;;;7.53;;
27893;SDS011;15240;50.812;4.792;2022-12-24T05:10:32;40.33;;;7.13;;
27893;SDS011;15240;50.812;4.792;2022-12-24T05:12:58;39.23;;;7.47;;
27893;SDS011;15240;50.812;4.792;2022-12-24T05:15:24;46.83;;;7.17;;
27893;SDS011;15240;50.812;4.792;2022-12-24T05:17:50;49.07;;;7.97;;
27893;SDS011;15240;50.812;4.792;2022-12-24T05:20:16;39.50;;;7.60;;
27893;SDS011;15240;50.812;4.792;2022-12-24T05:22:43;52.13;;;7.77;;
27893;SDS011;15240;50.812;4.792;2022-12-24T05:25:29;47.97;;;7.50;;
27893;SDS011;15240;50.812;4.792;2022-12-24T05:28:15;41.80;;;7.67;;
27893;SDS011;15240;50.812;4.792;2022-12-24T05:30:41;42.73;;;8.07;;
27893;SDS011;15240;50.812;4.792;2022-12-24T05:33:07;50.10;;;8.00;;
27893;SDS011;15240;50.812;4.792;2022-12-24T05:35:33;47.03;;;7.27;;
27893;SDS011;15240;50.812;4.792;2022-12-24T05:37:59;44.47;;;8.43;;
27893;SDS011;15240;50.812;4.792;2022-12-24T05:40:25;44.83;;;7.37;;
27893;SDS011;15240;50.812;4.792;2022-12-24T05:42:51;38.77;;;7.30;;
27893;SDS011;15240;50.812;4.792;2022-12-24T05:45:17;47.37;;;7.60;;
27893;SDS011;15240;50.812;4.792;2022-12-24T05:47:43;42.50;;;7.70;;
27893;SDS011;15240;50.812;4.792;2022-12-24T05:50:09;41.83;;;7.50;;
27893;SDS011;15240;50.812;4.792;2022-12-24T05:52:36;50.27;;;8.33;;
27893;SDS011;15240;50.812;4.792;2022-12-24T05:55:02;45.50;;;7.93;;
27893;SDS011;15240;50.812;4.792;2022-12-24T05:57:28;50.30;;;7.80;;
27893;SDS011;15240;50.812;4.792;2022-12-24T05:59:54;39.33;;;8.07;;
27893;SDS011;15240;50.812;4.792;2022-12-24T06:02:20;44.97;;;7.63;;
27893;SDS011;15240;50.812;4.792;2022-12-24T06:04:46;49.17;;;8.30;;
27893;SDS011;15240;50.812;4.792;2022-12-24T06:07:13;52.83;;;7.37;;
27893;SDS011;15240;50.812;4.792;2022-12-24T06:09:39;44.97;;;8.37;;
27893;SDS011;15240;50.812;4.792;2022-12-24T06:12:05;38.83;;;7.33;;
27893;SDS011;15240;50.812;4.792;2022-12-24T06:14:31;43.63;;;7.50;;
27893;SDS011;15240;50.812;4.792;2022-12-24T06:16:57;45.60;;;6.77;;
27893;SDS011;15240;50.812;4.792;2022-12-24T06:19:23;44.80;;;7.63;;
27893;SDS011;15240;50.812;4.792;2022-12-24T06:21:50;44.40;;;7.17;;
27893;SDS011;15240;50.812;4.792;2022-12-24T06:24:16;34.73;;;7.40;;
27893;SDS011;15240;50.812;4.792;2022-12-24T06:26:42;46.40;;;7.03;;
27893;SDS011;15240;50.812;4.792;2022-12-24T06:29:08;48.77;;;8.17;;
27893;SDS011;15240;50.812;4.792;2022-12-24T06:31:34;46.60;;;7.40;;
27893;SDS011;15240;50.812;4.792;2022-12-24T06:34:05;48.73;;;7.93;;
27893;SDS011;15240;50.812;4.792;2022-12-24T06:43:01;45.53;;;8.30;;
27893;SDS011;15240;50.812;4.792;2022-12-24T06:48:32;40.40;;;8.00;;
27893;SDS011;15240;50.812;4.792;2022-12-24T06:51:00;49.23;;;8.70;;
27893;SDS011;15240;50.812;4.792;2022-12-24T06:53:26;49.63;;;7.43;;
27893;SDS011;15240;50.812;4.792;2022-12-24T06:55:52;43.50;;;8.07;;
27893;SDS011;15240;50.812;4.792;2022-12-24T07:01:11;44.13;;;7.20;;
27893;SDS011;15240;50.812;4.792;2022-12-24T07:03:37;47.87;;;8.50;;
27893;SDS011;15240;50.812;4.792;2022-12-24T07:06:03;46.93;;;7.80;;
27893;SDS011;15240;50.812;4.792;2022-12-24T07:08:30;47.43;;;7.83;;
27893;SDS011;15240;50.812;4.792;2022-12-24T07:11:00;51.53;;;8.13;;
27893;SDS011;15240;50.812;4.792;2022-12-24T07:13:26;43.87;;;7.33;;
27893;SDS011;15240;50.812;4.792;2022-12-24T07:16:00;48.47;;;8.30;;
27893;SDS011;15240;50.812;4.792;2022-12-24T07:18:27;46.90;;;7.43;;
27893;SDS011;15240;50.812;4.792;2022-12-24T07:20:53;44.37;;;7.80;;
27893;SDS011;15240;50.812;4.792;2022-12-24T07:23:19;39.73;;;7.73;;
27893;SDS011;15240;50.812;4.792;2022-12-24T07:25:45;50.63;;;8.20;;
27893;SDS011;15240;50.812;4.792;2022-12-24T07:28:11;39.07;;;7.73;;
27893;SDS011;15240;50.812;4.792;2022-12-24T07:30:37;41.33;;;7.63;;
27893;SDS011;15240;50.812;4.792;2022-12-24T07:33:03;37.50;;;7.73;;
27893;SDS011;15240;50.812;4.792;2022-12-24T07:35:29;53.30;;;8.27;;
27893;SDS011;15240;50.812;4.792;2022-12-24T07:37:55;55.23;;;8.17;;
27893;SDS011;15240;50.812;4.792;2022-12-24T07:40:21;44.10;;;7.60;;
27893;SDS011;15240;50.812;4.792;2022-12-24T07:42:48;42.07;;;7.60;;
27893;SDS011;15240;50.812;4.792;2022-12-24T07:45:14;51.93;;;8.17;;
27893;SDS011;15240;50.812;4.792;2022-12-24T07:47:40;46.03;;;7.43;;
27893;SDS011;15240;50.812;4.792;2022-12-24T07:50:06;52.37;;;8.30;;
27893;SDS011;15240;50.812;4.792;2022-12-24T07:52:32;44.60;;;8.00;;
27893;SDS011;15240;50.812;4.792;2022-12-24T07:54:58;46.77;;;8.23;;
27893;SDS011;15240;50.812;4.792;2022-12-24T07:57:24;50.43;;;8.30;;
27893;SDS011;15240;50.812;4.792;2022-12-24T07:59:50;44.47;;;7.20;;
27893;SDS011;15240;50.812;4.792;2022-12-24T08:02:16;38.83;;;7.93;;
27893;SDS011;15240;50.812;4.792;2022-12-24T08:04:42;53.00;;;8.50;;
27893;SDS011;15240;50.812;4.792;2022-12-24T08:07:08;53.77;;;8.67;;
27893;SDS011;15240;50.812;4.792;2022-12-24T08:09:35;50.27;;;8.10;;
27893;SDS011;15240;50.812;4.792;2022-12-24T08:12:01;48.30;;;7.57;;
27893;SDS011;15240;50.812;4.792;2022-12-24T08:14:30;43.47;;;8.07;;
27893;SDS011;15240;50.812;4.792;2022-12-24T08:16:56;47.00;;;8.07;;
27893;SDS011;15240;50.812;4.792;2022-12-24T08:19:22;50.30;;;9.17;;
27893;SDS011;15240;50.812;4.792;2022-12-24T08:21:48;46.67;;;8.50;;
27893;SDS011;15240;50.812;4.792;2022-12-24T08:24:14;47.37;;;8.50;;
27893;SDS011;15240;50.812;4.792;2022-12-24T08:26:40;50.33;;;8.60;;
27893;SDS011;15240;50.812;4.792;2022-12-24T08:29:06;39.03;;;8.03;;
27893;SDS011;15240;50.812;4.792;2022-12-24T08:31:32;45.80;;;8.67;;
27893;SDS011;15240;50.812;4.792;2022-12-24T08:34:01;47.63;;;9.23;;
27893;SDS011;15240;50.812;4.792;2022-12-24T08:36:27;48.13;;;8.87;;
27893;SDS011;15240;50.812;4.792;2022-12-24T08:38:53;39.70;;;7.97;;
27893;SDS011;15240;50.812;4.792;2022-12-24T08:41:19;43.50;;;8.57;;
27893;SDS011;15240;50.812;4.792;2022-12-24T08:43:45;50.13;;;8.67;;
27893;SDS011;15240;50.812;4.792;2022-12-24T08:46:12;50.23;;;8.70;;
27893;SDS011;15240;50.812;4.792;2022-12-24T08:48:38;39.53;;;8.27;;
27893;SDS011;15240;50.812;4.792;2022-12-24T08:51:05;48.33;;;8.70;;
27893;SDS011;15240;50.812;4.792;2022-12-24T08:53:32;43.30;;;8.03;;
27893;SDS011;15240;50.812;4.792;2022-12-24T08:56:05;42.33;;;7.77;;
27893;SDS011;15240;50.812;4.792;2022-12-24T08:58:31;46.03;;;9.50;;
27893;SDS011;15240;50.812;4.792;2022-12-24T09:00:58;53.40;;;8.70;;
27893;SDS011;15240;50.812;4.792;2022-12-24T09:03:24;42.97;;;8.97;;
27893;SDS011;15240;50.812;4.792;2022-12-24T09:05:50;42.03;;;7.77;;
27893;SDS011;15240;50.812;4.792;2022-12-24T09:08:19;50.13;;;7.90;;
27893;SDS011;15240;50.812;4.792;2022-12-24T09:10:45;50.73;;;8.50;;
27893;SDS011;15240;50.812;4.792;2022-12-24T09:13:11;38.70;;;7.43;;
27893;SDS011;15240;50.812;4.792;2022-12-24T09:15:37;43.40;;;7.23;;
27893;SDS011;15240;50.812;4.792;2022-12-24T09:18:04;41.23;;;8.67;;
27893;SDS011;15240;50.812;4.792;2022-12-24T09:20:31;52.00;;;7.67;;
27893;SDS011;15240;50.812;4.792;2022-12-24T09:22:58;51.23;;;8.50;;
27893;SDS011;15240;50.812;4.792;2022-12-24T09:25:24;40.53;;;7.70;;
27893;SDS011;15240;50.812;4.792;2022-12-24T09:27:50;36.03;;;8.10;;
27893;SDS011;15240;50.812;4.792;2022-12-24T09:30:16;38.33;;;8.20;;
27893;SDS011;15240;50.812;4.792;2022-12-24T09:32:42;35.57;;;7.90;;
27893;SDS011;15240;50.812;4.792;2022-12-24T09:35:08;55.20;;;7.47;;
27893;SDS011;15240;50.812;4.792;2022-12-24T09:37:35;41.67;;;7.43;;
27893;SDS011;15240;50.812;4.792;2022-12-24T09:40:02;43.90;;;8.53;;
27893;SDS011;15240;50.812;4.792;2022-12-24T09:42:47;53.53;;;8.80;;
27893;SDS011;15240;50.812;4.792;2022-12-24T09:45:50;41.90;;;10.87;;
27893;SDS011;15240;50.812;4.792;2022-12-24T09:48:11;41.93;;;13.70;;
27893;SDS011;15240;50.812;4.792;2022-12-24T09:53:20;33.57;;;9.13;;
27893;SDS011;15240;50.812;4.792;2022-12-24T09:55:50;41.03;;;8.63;;
27893;SDS011;15240;50.812;4.792;2022-12-24T09:58:22;40.73;;;9.17;;
27893;SDS011;15240;50.812;4.792;2022-12-24T10:00:50;41.40;;;7.80;;
27893;SDS011;15240;50.812;4.792;2022-12-24T10:03:17;42.40;;;8.30;;
27893;SDS011;15240;50.812;4.792;2022-12-24T10:10:54;38.60;;;8.10;;
27893;SDS011;15240;50.812;4.792;2022-12-24T10:16:00;46.50;;;7.97;;
27893;SDS011;15240;50.812;4.792;2022-12-24T10:21:27;40.63;;;8.27;;
27893;SDS011;15240;50.812;4.792;2022-12-24T10:24:11;41.43;;;7.33;;
27893;SDS011;15240;50.812;4.792;2022-12-24T10:26:47;32.57;;;7.03;;
27893;SDS011;15240;50.812;4.792;2022-12-24T10:29:26;44.43;;;7.67;;
27893;SDS011;15240;50.812;4.792;2022-12-24T10:34:37;47.27;;;8.60;;
27893;SDS011;15240;50.812;4.792;2022-12-24T10:37:05;48.07;;;8.87;;
27893;SDS011;15240;50.812;4.792;2022-12-24T10:39:31;36.27;;;7.73;;
27893;SDS011;15240;50.812;4.792;2022-12-24T10:41:58;39.73;;;7.70;;
27893;SDS011;15240;50.812;4.792;2022-12-24T10:44:27;40.83;;;7.23;;
27893;SDS011;15240;50.812;4.792;2022-12-24T10:46:55;37.30;;;7.30;;
27893;SDS011;15240;50.812;4.792;2022-12-24T10:51:55;40.87;;;7.33;;
27893;SDS011;15240;50.812;4.792;2022-12-24T10:54:23;43.67;;;7.33;;
27893;SDS011;15240;50.812;4.792;2022-12-24T10:56:51;34.93;;;7.10;;
27893;SDS011;15240;50.812;4.792;2022-12-24T10:59:40;34.93;;;7.00;;
27893;SDS011;15240;50.812;4.792;2022-12-24T11:04:52;36.83;;;6.97;;
27893;SDS011;15240;50.812;4.792;2022-12-24T11:07:19;39.80;;;6.70;;
27893;SDS011;15240;50.812;4.792;2022-12-24T11:09:53;42.47;;;7.40;;
27893;SDS011;15240;50.812;4.792;2022-12-24T11:12:21;42.57;;;7.27;;
27893;SDS011;15240;50.812;4.792;2022-12-24T11:14:47;39.03;;;7.27;;
27893;SDS011;15240;50.812;4.792;2022-12-24T11:17:21;38.17;;;7.13;;
27893;SDS011;15240;50.812;4.792;2022-12-24T11:19:48;41.83;;;7.33;;
27893;SDS011;15240;50.812;4.792;2022-12-24T11:22:20;45.60;;;7.57;;
27893;SDS011;15240;50.812;4.792;2022-12-24T11:24:55;36.43;;;7.73;;
27893;SDS011;15240;50.812;4.792;2022-12-24T11:27:31;34.63;;;7.50;;
27893;SDS011;15240;50.812;4.792;2022-12-24T11:30:19;38.37;;;7.20;;
27893;SDS011;15240;50.812;4.792;2022-12-24T11:32:46;39.53;;;7.57;;
27893;SDS011;15240;50.812;4.792;2022-12-24T11:35:20;35.43;;;7.43;;
27893;SDS011;15240;50.812;4.792;2022-12-24T11:37:47;35.13;;;7.47;;
27893;SDS011;15240;50.812;4.792;2022-12-24T11:40:20;39.57;;;7.10;;
27893;SDS011;15240;50.812;4.792;2022-12-24T11:42:47;35.87;;;6.83;;
27893;SDS011;15240;50.812;4.792;2022-12-24T11:45:24;36.63;;;7.37;;
27893;SDS011;15240;50.812;4.792;2022-12-24T11:47:51;35.73;;;7.13;;
27893;SDS011;15240;50.812;4.792;2022-12-24T11:52:46;44.00;;;7.90;;
27893;SDS011;15240;50.812;4.792;2022-12-24T11:55:19;38.83;;;7.07;;
27893;SDS011;15240;50.812;4.792;2022-12-24T12:00:17;40.50;;;6.93;;
27893;SDS011;15240;50.812;4.792;2022-12-24T12:02:44;43.97;;;7.60;;
27893;SDS011;15240;50.812;4.792;2022-12-24T12:05:12;31.67;;;6.87;;
27893;SDS011;15240;50.812;4.792;2022-12-24T12:07:40;35.00;;;6.83;;
27893;SDS011;15240;50.812;4.792;2022-12-24T12:15:54;38.50;;;7.30;;
27893;SDS011;15240;50.812;4.792;2022-12-24T12:18:32;31.23;;;6.87;;
27893;SDS011;15240;50.812;4.792;2022-12-24T12:21:01;33.60;;;6.67;;
27893;SDS011;15240;50.812;4.792;2022-12-24T12:23:33;31.33;;;6.50;;
27893;SDS011;15240;50.812;4.792;2022-12-24T12:26:03;26.60;;;6.57;;
27893;SDS011;15240;50.812;4.792;2022-12-24T12:28:40;33.90;;;6.77;;
27893;SDS011;15240;50.812;4.792;2022-12-24T12:33:45;33.47;;;6.50;;
27893;SDS011;15240;50.812;4.792;2022-12-24T12:36:13;33.53;;;7.00;;
27893;SDS011;15240;50.812;4.792;2022-12-24T12:38:41;29.00;;;6.33;;
27893;SDS011;15240;50.812;4.792;2022-12-24T12:41:10;29.53;;;6.70;;
27893;SDS011;15240;50.812;4.792;2022-12-24T12:54:12;33.03;;;6.47;;
27893;SDS011;15240;50.812;4.792;2022-12-24T12:56:42;30.67;;;6.43;;
27893;SDS011;15240;50.812;4.792;2022-12-24T12:59:18;33.07;;;6.53;;
27893;SDS011;15240;50.812;4.792;2022-12-24T13:02:00;28.50;;;6.53;;
27893;SDS011;15240;50.812;4.792;2022-12-24T13:07:19;33.97;;;6.77;;
27893;SDS011;15240;50.812;4.792;2022-12-24T13:20:41;36.17;;;6.90;;
27893;SDS011;15240;50.812;4.792;2022-12-24T13:23:12;29.83;;;6.70;;
27893;SDS011;15240;50.812;4.792;2022-12-24T13:25:43;29.33;;;6.53;;
27893;SDS011;15240;50.812;4.792;2022-12-24T13:30:42;38.10;;;7.40;;
27893;SDS011;15240;50.812;4.792;2022-12-24T13:33:09;27.50;;;6.47;;
27893;SDS011;15240;50.812;4.792;2022-12-24T13:35:37;33.20;;;6.77;;
27893;SDS011;15240;50.812;4.792;2022-12-24T13:40:48;29.43;;;6.67;;
27893;SDS011;15240;50.812;4.792;2022-12-24T13:43:14;32.33;;;6.77;;
27893;SDS011;15240;50.812;4.792;2022-12-24T13:45:43;32.73;;;6.53;;
27893;SDS011;15240;50.812;4.792;2022-12-24T13:53:01;32.33;;;7.30;;
27893;SDS011;15240;50.812;4.792;2022-12-24T13:55:28;30.23;;;7.93;;
27893;SDS011;15240;50.812;4.792;2022-12-24T13:57:59;38.27;;;10.07;;
27893;SDS011;15240;50.812;4.792;2022-12-24T14:02:56;29.13;;;7.57;;
27893;SDS011;15240;50.812;4.792;2022-12-24T14:08:10;33.27;;;6.97;;
27893;SDS011;15240;50.812;4.792;2022-12-24T14:10:56;35.37;;;6.87;;
27893;SDS011;15240;50.812;4.792;2022-12-24T14:18:30;35.97;;;8.37;;
27893;SDS011;15240;50.812;4.792;2022-12-24T14:20:58;37.00;;;8.40;;
27893;SDS011;15240;50.812;4.792;2022-12-24T14:24:12;42.97;;;8.77;;
27893;SDS011;15240;50.812;4.792;2022-12-24T14:26:15;35.43;;;7.60;;
27893;SDS011;15240;50.812;4.792;2022-12-24T14:28:44;34.10;;;7.03;;
27893;SDS011;15240;50.812;4.792;2022-12-24T14:31:14;36.40;;;7.87;;
27893;SDS011;15240;50.812;4.792;2022-12-24T14:33:40;27.73;;;6.50;;
27893;SDS011;15240;50.812;4.792;2022-12-24T14:36:06;28.93;;;7.10;;
27893;SDS011;15240;50.812;4.792;2022-12-24T14:38:33;32.97;;;7.57;;
27893;SDS011;15240;50.812;4.792;2022-12-24T14:41:21;35.73;;;7.30;;
27893;SDS011;15240;50.812;4.792;2022-12-24T14:46:37;32.93;;;7.63;;
27893;SDS011;15240;50.812;4.792;2022-12-24T14:54:37;36.37;;;8.30;;
27893;SDS011;15240;50.812;4.792;2022-12-24T14:57:14;37.97;;;8.07;;
27893;SDS011;15240;50.812;4.792;2022-12-24T14:59:48;34.53;;;7.53;;
27893;SDS011;15240;50.812;4.792;2022-12-24T15:05:03;38.40;;;7.37;;
27893;SDS011;15240;50.812;4.792;2022-12-24T15:07:30;38.10;;;8.00;;
27893;SDS011;15240;50.812;4.792;2022-12-24T15:09:57;27.60;;;6.73;;
27893;SDS011;15240;50.812;4.792;2022-12-24T15:12:23;36.57;;;7.23;;
27893;SDS011;15240;50.812;4.792;2022-12-24T15:14:49;36.07;;;7.60;;
27893;SDS011;15240;50.812;4.792;2022-12-24T15:17:15;42.27;;;7.87;;
27893;SDS011;15240;50.812;4.792;2022-12-24T15:19:42;28.90;;;7.37;;
27893;SDS011;15240;50.812;4.792;2022-12-24T15:22:11;34.40;;;7.27;;
27893;SDS011;15240;50.812;4.792;2022-12-24T15:24:45;33.20;;;7.57;;
27893;SDS011;15240;50.812;4.792;2022-12-24T15:27:14;35.07;;;7.63;;
27893;SDS011;15240;50.812;4.792;2022-12-24T15:29:42;36.07;;;7.67;;
27893;SDS011;15240;50.812;4.792;2022-12-24T15:32:09;43.50;;;8.40;;
27893;SDS011;15240;50.812;4.792;2022-12-24T15:37:04;33.30;;;7.67;;
27893;SDS011;15240;50.812;4.792;2022-12-24T15:39:30;27.40;;;6.60;;
27893;SDS011;15240;50.812;4.792;2022-12-24T15:41:57;32.60;;;8.13;;
27893;SDS011;15240;50.812;4.792;2022-12-24T15:44:39;38.60;;;8.90;;
27893;SDS011;15240;50.812;4.792;2022-12-24T15:47:06;31.53;;;8.73;;
27893;SDS011;15240;50.812;4.792;2022-12-24T15:49:33;43.40;;;9.33;;
27893;SDS011;15240;50.812;4.792;2022-12-24T15:54:29;41.60;;;9.10;;
27893;SDS011;15240;50.812;4.792;2022-12-24T15:56:56;43.17;;;8.50;;
27893;SDS011;15240;50.812;4.792;2022-12-24T16:01:49;41.70;;;13.27;;
27893;SDS011;15240;50.812;4.792;2022-12-24T16:04:25;38.50;;;10.70;;
27893;SDS011;15240;50.812;4.792;2022-12-24T16:07:00;38.03;;;9.40;;
27893;SDS011;15240;50.812;4.792;2022-12-24T16:09:40;43.40;;;10.07;;
27893;SDS011;15240;50.812;4.792;2022-12-24T16:14:39;35.47;;;9.70;;
27893;SDS011;15240;50.812;4.792;2022-12-24T16:17:12;43.00;;;11.40;;
27893;SDS011;15240;50.812;4.792;2022-12-24T16:19:41;41.27;;;12.43;;
27893;SDS011;15240;50.812;4.792;2022-12-24T16:22:11;41.83;;;12.57;;
27893;SDS011;15240;50.812;4.792;2022-12-24T16:24:57;49.50;;;13.77;;
27893;SDS011;15240;50.812;4.792;2022-12-24T16:27:23;51.80;;;12.50;;
27893;SDS011;15240;50.812;4.792;2022-12-24T16:29:49;52.80;;;13.47;;
27893;SDS011;15240;50.812;4.792;2022-12-24T16:34:51;49.03;;;14.43;;
27893;SDS011;15240;50.812;4.792;2022-12-24T16:37:17;49.13;;;15.37;;
27893;SDS011;15240;50.812;4.792;2022-12-24T16:39:43;53.73;;;12.93;;
27893;SDS011;15240;50.812;4.792;2022-12-24T16:42:11;56.03;;;12.97;;
27893;SDS011;15240;50.812;4.792;2022-12-24T16:44:55;49.93;;;12.17;;
27893;SDS011;15240;50.812;4.792;2022-12-24T16:47:23;43.13;;;11.27;;
27893;SDS011;15240;50.812;4.792;2022-12-24T16:49:50;47.30;;;11.57;;
27893;SDS011;15240;50.812;4.792;2022-12-24T16:52:17;41.40;;;10.57;;
27893;SDS011;15240;50.812;4.792;2022-12-24T16:54:46;39.80;;;10.70;;
27893;SDS011;15240;50.812;4.792;2022-12-24T16:57:12;41.93;;;11.13;;